createdAt,value
2018-04-28T00:01:30.798Z,6.10
2018-04-28T00:03:59.142Z,5.90
2018-04-28T00:06:26.693Z,6.03
2018-04-28T00:08:54.269Z,10.05
2018-04-28T00:11:21.853Z,9.30
2018-04-28T00:13:49.424Z,3.60
2018-04-28T00:16:32.661Z,7.95
2018-04-28T00:19:01.053Z,4.65
2018-04-28T00:21:30.166Z,13.18
2018-04-28T00:23:57.846Z,7.90
2018-04-28T00:26:25.509Z,8.27
2018-04-28T00:28:58.525Z,6.57
2018-04-28T00:31:28.912Z,10.00
2018-04-28T00:33:56.600Z,6.37
2018-04-28T00:39:25.757Z,5.05
2018-04-28T00:41:53.304Z,5.60
2018-04-28T00:44:21.729Z,11.60
2018-04-28T00:46:55.055Z,4.97
2018-04-28T00:49:23.425Z,7.57
2018-04-28T00:51:52.440Z,5.68
2018-04-28T00:54:26.041Z,5.25
2018-04-28T00:57:00.105Z,9.30
2018-04-28T00:59:29.234Z,11.02
2018-04-28T01:01:58.458Z,6.18
2018-04-28T01:04:36.530Z,3.42
2018-04-28T01:07:04.081Z,5.47
2018-04-28T01:09:31.629Z,6.07
2018-04-28T01:11:59.200Z,7.85
2018-04-28T01:14:43.572Z,6.80
2018-04-28T01:17:26.812Z,6.62
2018-04-28T01:19:59.057Z,10.40
2018-04-28T01:25:42.365Z,4.95
2018-04-28T01:28:13.965Z,6.62
2018-04-28T01:30:47.169Z,6.75
2018-04-28T01:33:21.197Z,3.10
2018-04-28T01:38:52.961Z,9.07
2018-04-28T01:41:23.948Z,5.03
2018-04-28T01:44:00.433Z,6.15
2018-04-28T01:46:29.637Z,7.65
2018-04-28T01:48:59.113Z,9.10
2018-04-28T01:51:27.662Z,8.07
2018-04-28T01:57:09.598Z,9.60
2018-04-28T01:59:44.594Z,12.40
2018-04-28T02:02:13.021Z,8.88
2018-04-28T02:04:48.961Z,9.23
2018-04-28T02:07:16.525Z,5.50
2018-04-28T02:09:45.521Z,8.07
2018-04-28T02:12:17.530Z,8.50
2018-04-28T02:17:50.969Z,7.25
2018-04-28T02:20:25.244Z,5.82
2018-04-28T02:23:10.614Z,13.90
2018-04-28T02:25:45.953Z,6.90
2018-04-28T02:31:31.490Z,3.37
2018-04-28T02:34:05.816Z,7.37
2018-04-28T02:36:37.077Z,9.52
2018-04-28T02:39:05.327Z,8.98
2018-04-28T02:44:55.734Z,9.60
2018-04-28T02:47:26.009Z,5.75
2018-04-28T02:50:13.898Z,12.80
2018-04-28T02:52:45.309Z,7.00
2018-04-28T02:55:20.397Z,12.32
2018-04-28T02:57:53.633Z,9.68
2018-04-28T03:00:36.082Z,7.07
2018-04-28T03:03:14.413Z,10.35
2018-04-28T03:05:42.753Z,8.65
2018-04-28T03:08:18.329Z,5.87
2018-04-28T03:10:57.516Z,10.48
2018-04-28T03:13:25.839Z,10.73
2018-04-28T03:16:05.264Z,6.80
2018-04-28T03:18:35.550Z,7.07
2018-04-28T03:21:03.137Z,5.50
2018-04-28T03:26:37.277Z,9.45
2018-04-28T03:29:09.361Z,9.65
2018-04-28T03:31:39.693Z,7.22
2018-04-28T03:37:24.687Z,5.93
2018-04-28T03:39:59.919Z,7.03
2018-04-28T03:42:29.849Z,5.62
2018-04-28T03:44:58.157Z,7.68
2018-04-28T03:50:35.947Z,9.75
2018-04-28T03:56:07.393Z,8.32
2018-04-28T03:58:48.196Z,6.00
2018-04-28T04:01:27.770Z,7.50
2018-04-28T04:04:13.309Z,4.95
2018-04-28T04:06:48.098Z,6.70
2018-04-28T04:09:20.663Z,7.22
2018-04-28T04:11:59.158Z,5.80
2018-04-28T04:14:44.380Z,4.22
2018-04-28T04:17:20.912Z,10.85
2018-04-28T04:23:28.533Z,5.20
2018-04-28T04:29:12.857Z,9.30
2018-04-28T04:31:42.085Z,13.02
2018-04-28T04:34:10.489Z,8.45
2018-04-28T04:39:44.154Z,7.93
2018-04-28T04:42:11.709Z,8.63
2018-04-28T04:44:45.904Z,5.18
2018-04-28T04:50:41.762Z,6.93
2018-04-28T04:56:27.837Z,5.55
2018-04-28T04:59:21.576Z,6.30
2018-04-28T05:02:00.937Z,7.78
2018-04-28T05:04:31.044Z,7.95
2018-04-28T05:10:14.784Z,3.45
2018-04-28T05:16:03.970Z,13.18
2018-04-28T05:22:05.685Z,7.15
2018-04-28T05:27:38.876Z,6.12
2018-04-28T05:30:15.009Z,6.85
2018-04-28T05:32:54.377Z,8.23
2018-04-28T05:35:29.205Z,8.10
2018-04-28T05:41:24.109Z,6.65
2018-04-28T05:47:07.959Z,7.70
2018-04-28T05:50:00.962Z,4.25
2018-04-28T05:52:41.281Z,6.05
2018-04-28T05:55:17.713Z,6.82
2018-04-28T05:57:54.954Z,7.05
2018-04-28T06:03:30.629Z,6.72
2018-04-28T06:09:12.741Z,9.52
2018-04-28T06:14:56.738Z,5.85
2018-04-28T06:17:30.065Z,7.15
2018-04-28T06:20:23.377Z,6.28
2018-04-28T06:22:51.738Z,6.57
2018-04-28T06:25:19.346Z,7.50
2018-04-28T06:27:46.918Z,10.88
2018-04-28T06:30:14.501Z,5.00
2018-04-28T06:32:42.837Z,6.97
2018-04-28T06:35:10.510Z,5.75
2018-04-28T06:37:38.074Z,7.15
2018-04-28T06:40:05.665Z,8.63
2018-04-28T06:42:33.222Z,5.40
2018-04-28T06:45:00.786Z,8.80
2018-04-28T06:47:28.366Z,7.15
2018-04-28T06:49:55.929Z,7.20
2018-04-28T06:52:23.508Z,4.60
2018-04-28T06:54:51.073Z,6.77
2018-04-28T06:57:18.659Z,10.23
2018-04-28T06:59:46.234Z,7.93
2018-04-28T07:02:13.805Z,3.93
2018-04-28T07:04:41.477Z,8.05
2018-04-28T07:07:08.957Z,9.40
2018-04-28T07:09:36.512Z,9.63
2018-04-28T07:12:04.102Z,9.60
2018-04-28T07:14:31.665Z,4.53
2018-04-28T07:16:59.225Z,5.87
2018-04-28T07:19:26.806Z,7.22
2018-04-28T07:21:54.363Z,8.23
2018-04-28T07:24:21.943Z,7.33
2018-04-28T07:26:49.501Z,8.00
2018-04-28T07:29:17.873Z,6.00
2018-04-28T07:31:45.453Z,10.20
2018-04-28T07:34:13.793Z,5.33
2018-04-28T07:36:41.359Z,10.20
2018-04-28T07:39:08.924Z,6.27
2018-04-28T07:41:36.485Z,4.23
2018-04-28T07:44:04.057Z,5.40
2018-04-28T07:46:31.608Z,4.47
2018-04-28T07:49:00.542Z,6.27
2018-04-28T07:51:28.097Z,5.67
2018-04-28T07:53:55.688Z,4.33
2018-04-28T07:56:23.240Z,4.80
2018-04-28T07:58:50.797Z,5.40
2018-04-28T08:01:19.144Z,11.73
2018-04-28T08:03:46.693Z,8.13
2018-04-28T08:06:14.267Z,6.20
2018-04-28T08:08:41.826Z,3.87
2018-04-28T08:11:09.402Z,9.73
2018-04-28T08:13:36.953Z,6.30
2018-04-28T08:16:05.294Z,5.67
2018-04-28T08:18:32.853Z,6.97
2018-04-28T08:21:00.432Z,5.37
2018-04-28T08:23:27.986Z,5.40
2018-04-28T08:25:55.537Z,5.10
2018-04-28T08:28:23.877Z,6.83
2018-04-28T08:30:51.428Z,9.23
2018-04-28T08:33:18.992Z,6.57
2018-04-28T08:35:47.960Z,3.97
2018-04-28T08:38:16.297Z,4.63
2018-04-28T08:40:43.862Z,3.00
2018-04-28T08:43:11.441Z,4.43
2018-04-28T08:45:39.021Z,9.40
2018-04-28T08:48:06.597Z,3.07
2018-04-28T08:50:34.149Z,10.90
2018-04-28T08:53:01.744Z,8.70
2018-04-28T08:55:29.293Z,4.80
2018-04-28T08:57:56.845Z,5.23
2018-04-28T09:00:33.181Z,12.20
2018-04-28T09:03:00.733Z,4.53
2018-04-28T09:05:28.305Z,4.50
2018-04-28T09:07:55.856Z,4.93
2018-04-28T09:10:23.426Z,5.90
2018-04-28T09:12:50.978Z,3.43
2018-04-28T09:15:18.555Z,4.37
2018-04-28T09:17:46.121Z,4.77
2018-04-28T09:20:13.692Z,3.60
2018-04-28T09:22:42.010Z,7.30
2018-04-28T09:25:09.581Z,7.07
2018-04-28T09:27:37.132Z,6.20
2018-04-28T09:30:04.686Z,5.17
2018-04-28T09:32:33.024Z,4.40
2018-04-28T09:35:00.578Z,5.10
2018-04-28T09:37:28.177Z,7.73
2018-04-28T09:39:56.801Z,5.73
2018-04-28T09:42:24.356Z,4.03
2018-04-28T09:44:51.900Z,7.97
2018-04-28T09:47:19.473Z,5.80
2018-04-28T09:49:47.025Z,4.70
2018-04-28T09:52:14.596Z,9.83
2018-04-28T09:54:42.158Z,6.20
2018-04-28T09:57:09.733Z,5.43
2018-04-28T09:59:38.049Z,7.80
2018-04-28T10:02:12.353Z,7.10
2018-04-28T10:04:40.674Z,4.90
2018-04-28T10:07:08.225Z,7.50
2018-04-28T10:09:35.838Z,4.57
2018-04-28T10:12:03.409Z,9.13
2018-04-28T10:14:31.004Z,4.57
2018-04-28T10:16:58.553Z,5.83
2018-04-28T10:19:26.124Z,4.43
2018-04-28T10:21:53.668Z,7.83
2018-04-28T10:24:21.249Z,7.10
2018-04-28T10:26:48.796Z,7.27
2018-04-28T10:29:16.369Z,12.17
2018-04-28T10:31:43.924Z,8.53
2018-04-28T10:34:12.277Z,5.80
2018-04-28T10:36:39.829Z,5.43
2018-04-28T10:39:07.385Z,11.27
2018-04-28T10:41:35.476Z,5.37
2018-04-28T10:44:03.035Z,5.17
2018-04-28T10:46:30.614Z,11.13
2018-04-28T10:48:59.364Z,3.30
2018-04-28T10:51:26.937Z,7.47
2018-04-28T10:53:54.655Z,6.97
2018-04-28T10:56:23.188Z,5.57
2018-04-28T10:58:50.760Z,4.60
2018-04-28T11:01:18.326Z,5.73
2018-04-28T11:03:45.877Z,3.47
2018-04-28T11:06:13.515Z,15.53
2018-04-28T11:08:41.036Z,5.57
2018-04-28T11:11:08.590Z,5.20
2018-04-28T11:13:36.162Z,4.57
2018-04-28T11:16:03.721Z,4.53
2018-04-28T11:18:31.288Z,3.60
2018-04-28T11:20:59.610Z,8.00
2018-04-28T11:23:27.186Z,4.03
2018-04-28T11:25:54.762Z,7.77
2018-04-28T11:28:22.337Z,5.97
2018-04-28T11:30:49.889Z,9.17
2018-04-28T11:33:17.485Z,5.30
2018-04-28T11:35:45.810Z,2.83
2018-04-28T11:38:13.420Z,5.47
2018-04-28T11:40:41.733Z,3.60
2018-04-28T11:43:10.062Z,7.87
2018-04-28T11:45:37.633Z,7.07
2018-04-28T11:48:05.179Z,9.50
2018-04-28T11:50:32.747Z,8.47
2018-04-28T11:53:00.305Z,13.53
2018-04-28T11:55:27.873Z,5.30
2018-04-28T11:57:55.422Z,4.53
2018-04-28T12:00:22.992Z,12.83
2018-04-28T12:02:50.558Z,3.60
2018-04-28T12:05:18.152Z,7.80
2018-04-28T12:07:46.357Z,7.53
2018-04-28T12:10:15.439Z,8.97
2018-04-28T12:12:43.381Z,5.77
2018-04-28T12:15:10.891Z,6.47
2018-04-28T12:17:38.465Z,9.13
2018-04-28T12:20:06.014Z,6.70
2018-04-28T12:22:34.456Z,12.90
2018-04-28T12:25:02.034Z,6.97
2018-04-28T12:27:29.596Z,9.03
2018-04-28T12:29:57.237Z,12.90
2018-04-28T12:32:25.509Z,5.60
2018-04-28T12:34:53.932Z,5.27
2018-04-28T12:37:21.516Z,18.93
2018-04-28T12:39:49.076Z,10.97
2018-04-28T12:42:16.625Z,10.53
2018-04-28T12:44:44.962Z,6.53
2018-04-28T12:47:13.746Z,3.97
2018-04-28T12:49:41.312Z,6.10
2018-04-28T12:52:08.861Z,5.60
2018-04-28T12:54:36.437Z,11.67
2018-04-28T12:57:04.938Z,6.27
2018-04-28T12:59:32.515Z,18.73
2018-04-28T13:02:00.069Z,3.70
2018-04-28T13:04:28.400Z,6.63
2018-04-28T13:06:55.958Z,6.03
2018-04-28T13:09:23.550Z,4.33
2018-04-28T13:11:51.101Z,2.77
2018-04-28T13:14:18.648Z,8.17
2018-04-28T13:16:46.982Z,3.97
2018-04-28T13:19:14.529Z,5.80
2018-04-28T13:21:42.093Z,6.03
2018-04-28T13:24:09.641Z,6.37
2018-04-28T13:26:37.970Z,7.23
2018-04-28T13:29:05.541Z,5.53
2018-04-28T13:31:33.112Z,6.00
2018-04-28T13:34:00.665Z,6.57
2018-04-28T13:36:28.232Z,5.43
2018-04-28T13:38:55.781Z,5.43
2018-04-28T13:41:24.113Z,7.80
2018-04-28T13:43:51.664Z,5.23
2018-04-28T13:46:19.253Z,6.40
2018-04-28T13:48:46.805Z,5.10
2018-04-28T13:51:15.117Z,5.00
2018-04-28T13:53:42.686Z,4.87
2018-04-28T13:56:10.241Z,11.57
2018-04-28T13:58:39.089Z,5.00
2018-04-28T14:01:06.643Z,8.10
2018-04-28T14:03:34.220Z,5.60
2018-04-28T14:06:01.780Z,6.70
2018-04-28T14:08:29.350Z,7.30
2018-04-28T14:10:56.910Z,5.70
2018-04-28T14:13:24.490Z,8.40
2018-04-28T14:15:52.044Z,5.93
2018-04-28T14:18:20.407Z,5.50
2018-04-28T14:20:48.028Z,7.23
2018-04-28T14:23:15.586Z,4.17
2018-04-28T14:25:43.156Z,7.20
2018-04-28T14:28:11.473Z,7.83
2018-04-28T14:30:39.050Z,11.20
2018-04-28T14:33:06.597Z,7.43
2018-04-28T14:35:34.170Z,4.73
2018-04-28T14:38:01.724Z,7.00
2018-04-28T14:40:30.065Z,8.03
2018-04-28T14:42:57.608Z,4.90
2018-04-28T14:45:25.186Z,10.90
2018-04-28T14:47:52.853Z,8.93
2018-04-28T14:50:20.422Z,12.53
2018-04-28T14:52:48.023Z,8.67
2018-04-28T14:55:15.593Z,9.63
2018-04-28T14:57:43.146Z,4.97
2018-04-28T15:00:10.703Z,7.87
2018-04-28T15:02:38.274Z,10.90
2018-04-28T15:05:05.821Z,5.73
2018-04-28T15:07:33.389Z,6.80
2018-04-28T15:10:00.945Z,11.10
2018-04-28T15:12:28.516Z,14.90
2018-04-28T15:14:56.068Z,6.90
2018-04-28T15:17:23.637Z,7.90
2018-04-28T15:19:51.190Z,5.47
2018-04-28T15:22:18.762Z,8.07
2018-04-28T15:24:46.317Z,6.63
2018-04-28T15:27:13.909Z,5.67
2018-04-28T15:29:41.470Z,3.40
2018-04-28T15:32:09.025Z,5.70
2018-04-28T15:34:37.356Z,8.93
2018-04-28T15:37:04.911Z,4.73
2018-04-28T15:39:32.476Z,6.47
2018-04-28T15:42:00.021Z,9.10
2018-04-28T15:44:28.360Z,5.50
2018-04-28T15:46:55.913Z,10.40
2018-04-28T15:49:23.488Z,7.17
2018-04-28T15:51:51.037Z,9.13
2018-04-28T15:54:19.374Z,4.30
2018-04-28T15:56:46.928Z,11.30
2018-04-28T15:59:14.508Z,10.40
2018-04-28T16:01:42.057Z,3.40
2018-04-28T16:04:09.613Z,5.50
2018-04-28T16:06:37.953Z,7.03
2018-04-28T16:09:06.286Z,9.00
2018-04-28T16:11:34.656Z,6.63
2018-04-28T16:14:02.204Z,5.03
2018-04-28T16:16:29.782Z,12.50
2018-04-28T16:18:57.329Z,6.33
2018-04-28T16:21:24.903Z,4.73
2018-04-28T16:23:53.808Z,15.93
2018-04-28T16:26:21.390Z,6.87
2018-04-28T16:28:48.950Z,7.37
2018-04-28T16:31:16.501Z,13.70
2018-04-28T16:33:44.066Z,9.57
2018-04-28T16:36:12.381Z,8.43
2018-04-28T16:38:39.958Z,9.73
2018-04-28T16:41:07.508Z,4.63
2018-04-28T16:43:35.079Z,9.00
2018-04-28T16:46:02.640Z,4.03
2018-04-28T16:48:30.977Z,10.77
2018-04-28T16:50:58.530Z,7.47
2018-04-28T16:53:26.114Z,6.77
2018-04-28T16:55:53.673Z,7.77
2018-04-28T16:58:21.509Z,5.00
2018-04-28T17:00:49.077Z,5.07
2018-04-28T17:03:16.625Z,6.37
2018-04-28T17:05:44.201Z,4.33
2018-04-28T17:08:12.521Z,6.73
2018-04-28T17:10:41.647Z,5.57
2018-04-28T17:13:09.960Z,5.03
2018-04-28T17:15:37.539Z,3.80
2018-04-28T17:18:05.093Z,4.23
2018-04-28T17:20:33.031Z,5.63
2018-04-28T17:23:00.625Z,6.10
2018-04-28T17:25:28.980Z,3.80
2018-04-28T17:27:56.529Z,9.03
2018-04-28T17:30:24.118Z,4.77
2018-04-28T17:32:51.684Z,5.73
2018-04-28T17:35:19.241Z,8.40
2018-04-28T17:37:46.833Z,12.40
2018-04-28T17:40:14.657Z,12.30
2018-04-28T17:42:43.028Z,14.83
2018-04-28T17:45:10.677Z,9.40
2018-04-28T17:47:38.265Z,14.10
2018-04-28T17:50:05.822Z,9.57
2018-04-28T17:52:33.392Z,15.27
2018-04-28T17:55:00.961Z,12.40
2018-04-28T17:57:28.525Z,9.17
2018-04-28T17:59:56.214Z,11.53
2018-04-28T18:02:23.768Z,11.00
2018-04-28T18:04:51.345Z,7.63
2018-04-28T18:07:18.947Z,7.30
2018-04-28T18:09:46.539Z,7.10
2018-04-28T18:12:14.858Z,7.03
2018-04-28T18:14:42.474Z,7.33
2018-04-28T18:17:10.037Z,6.87
2018-04-28T18:19:37.638Z,8.80
2018-04-28T18:22:05.193Z,8.80
2018-04-28T18:24:32.790Z,13.20
2018-04-28T18:27:01.248Z,11.87
2018-04-28T18:29:28.806Z,8.23
2018-04-28T18:31:56.498Z,14.13
2018-04-28T18:34:24.072Z,7.33
2018-04-28T18:36:51.649Z,12.23
2018-04-28T18:39:19.197Z,6.40
2018-04-28T18:41:46.953Z,10.67
2018-04-28T18:44:14.505Z,8.93
2018-04-28T18:46:42.950Z,5.90
2018-04-28T18:49:10.507Z,8.73
2018-04-28T18:51:38.085Z,10.10
2018-04-28T18:54:05.669Z,11.00
2018-04-28T18:56:33.351Z,10.50
2018-04-28T18:59:01.021Z,13.23
2018-04-28T19:01:28.703Z,13.17
2018-04-28T19:03:56.365Z,7.63
2018-04-28T19:06:32.611Z,6.10
2018-04-28T19:09:00.272Z,9.70
2018-04-28T19:11:27.999Z,14.80
2018-04-28T19:13:55.577Z,9.80
2018-04-28T19:16:23.137Z,14.13
2018-04-28T19:18:50.808Z,10.15
2018-04-28T19:21:18.368Z,10.82
2018-04-28T19:23:46.057Z,13.82
2018-04-28T19:26:13.625Z,11.98
2018-04-28T19:28:41.307Z,12.50
2018-04-28T19:31:08.956Z,13.75
2018-04-28T19:33:36.624Z,15.75
2018-04-28T19:36:07.241Z,18.50
2018-04-28T19:38:35.718Z,21.33
2018-04-28T19:41:04.086Z,23.30
2018-04-28T19:43:31.654Z,18.25
2018-04-28T19:45:59.232Z,14.20
2018-04-28T19:48:26.866Z,10.63
2018-04-28T19:50:54.405Z,17.55
2018-04-28T19:53:22.764Z,17.65
2018-04-28T19:55:50.341Z,12.68
2018-04-28T19:58:17.901Z,13.13
2018-04-28T20:00:45.547Z,11.32
2018-04-28T20:03:13.108Z,10.68
2018-04-28T20:05:40.676Z,9.52
2018-04-28T20:08:08.293Z,7.65
2018-04-28T20:10:35.873Z,14.07
2018-04-28T20:13:03.437Z,12.65
2018-04-28T20:15:31.018Z,9.27
2018-04-28T20:17:58.588Z,8.75
2018-04-28T20:20:26.361Z,8.45
2018-04-28T20:23:05.762Z,9.05
2018-04-28T20:25:33.384Z,10.30
2018-04-28T20:28:00.945Z,9.80
2018-04-28T20:30:28.634Z,15.25
2018-04-28T20:32:56.206Z,11.77
2018-04-28T20:35:23.882Z,9.35
2018-04-28T20:37:51.556Z,11.85
2018-04-28T20:40:19.125Z,10.13
2018-04-28T20:42:46.797Z,8.25
2018-04-28T20:45:14.361Z,10.52
2018-04-28T20:47:41.937Z,13.88
2018-04-28T20:50:09.508Z,9.10
2018-04-28T20:52:37.093Z,18.60
2018-04-28T20:55:04.670Z,15.57
2018-04-28T20:57:32.245Z,8.73
2018-04-28T20:59:59.877Z,10.35
2018-04-28T21:02:27.401Z,9.88
2018-04-28T21:04:55.054Z,16.77
2018-04-28T21:07:22.729Z,13.95
2018-04-28T21:09:50.288Z,7.75
2018-04-28T21:12:17.861Z,8.65
2018-04-28T21:14:45.413Z,10.73
2018-04-28T21:17:13.013Z,10.45
2018-04-28T21:19:40.566Z,8.82
2018-04-28T21:22:08.121Z,19.30
2018-04-28T21:24:35.760Z,9.60
2018-04-28T21:27:03.312Z,12.02
2018-04-28T21:29:30.890Z,11.82
2018-04-28T21:31:58.447Z,10.25
2018-04-28T21:34:26.405Z,9.32
2018-04-28T21:36:54.204Z,11.15
2018-04-28T21:39:21.876Z,16.42
2018-04-28T21:41:50.773Z,16.35
2018-04-28T21:44:18.365Z,13.02
2018-04-28T21:46:48.744Z,11.07
2018-04-28T21:49:17.186Z,8.63
2018-04-28T21:51:44.738Z,9.88
2018-04-28T21:54:12.328Z,9.32
2018-04-28T21:56:39.886Z,12.37
2018-04-28T21:59:07.447Z,15.93
2018-04-28T22:01:35.025Z,18.70
2018-04-28T22:04:02.592Z,12.88
2018-04-28T22:06:30.201Z,10.95
2018-04-28T22:08:57.865Z,15.60
2018-04-28T22:11:25.444Z,18.58
2018-04-28T22:13:52.998Z,15.27
2018-04-28T22:16:20.573Z,12.40
2018-04-28T22:18:48.132Z,12.35
2018-04-28T22:21:15.733Z,16.73
2018-04-28T22:23:43.293Z,15.02
2018-04-28T22:26:10.869Z,12.95
2018-04-28T22:28:38.444Z,20.20
2018-04-28T22:31:06.117Z,18.85
2018-04-28T22:33:33.677Z,18.48
2018-04-28T22:36:01.265Z,11.05
2018-04-28T22:38:28.825Z,18.60
2018-04-28T22:40:56.397Z,12.85
2018-04-28T22:43:23.962Z,11.35
2018-04-28T22:45:51.557Z,12.07
2018-04-28T22:48:19.129Z,14.98
2018-04-28T22:50:46.693Z,15.70
2018-04-28T22:53:14.370Z,10.60
2018-04-28T22:55:41.942Z,12.95
2018-04-28T22:58:09.622Z,16.98
2018-04-28T23:00:42.111Z,16.05
2018-04-28T23:03:09.691Z,14.65
2018-04-28T23:05:38.008Z,14.85
2018-04-28T23:08:06.453Z,15.10
2018-04-28T23:10:34.028Z,18.00
2018-04-28T23:13:01.704Z,18.35
2018-04-28T23:15:29.276Z,21.60
2018-04-28T23:17:56.950Z,27.95
2018-04-28T23:20:24.527Z,24.90
2018-04-28T23:22:52.197Z,19.15
2018-04-28T23:25:19.757Z,30.23
2018-04-28T23:27:47.353Z,35.35
2018-04-28T23:30:15.016Z,28.98
2018-04-28T23:32:42.688Z,34.67
2018-04-28T23:35:10.257Z,25.30
2018-04-28T23:37:37.842Z,32.30
2018-04-28T23:40:05.416Z,34.28
2018-04-28T23:42:32.978Z,31.70
2018-04-28T23:45:00.557Z,31.85
2018-04-28T23:47:28.121Z,28.05
2018-04-28T23:49:55.797Z,21.60
2018-04-28T23:52:23.893Z,18.55
2018-04-28T23:54:51.478Z,17.40
2018-04-28T23:57:19.036Z,18.20
2018-04-28T23:59:46.606Z,20.83
